Time;durP1;ratioP1;P1;durP2;ratioP2;P2;SDS_P1;SDS_P2;PMS_P1;PMS_P2;Temp;Humidity;BMP_temperature;BMP_pressure;BME280_temperature;BME280_humidity;BME280_pressure;Samples;Min_cycle;Max_cycle;Signal;HPM_P1;HPM_P2
2023/01/19 00:37:06;;;;;;;;;;;;;;;;;;;;;
2023/01/19 00:39:50;;;;;;;;;;;;;;;;;;;;;
2023/01/19 00:45:00;;;;;;;1.52;0.60;;;3.90;99.90;;;;;;6157794;23;20082;-86
2023/01/19 00:47:27;;;;;;;2.22;0.60;;;3.90;99.90;;;;;;6202336;22;20433;-86
2023/01/19 00:50:08;;;;;;;1.52;0.55;;;3.80;99.90;;;;;;6281817;22;19999;-87
2023/01/19 00:52:44;;;;;;;1.20;0.60;;;3.80;99.90;;;;;;6254153;22;20849;-87
2023/01/19 00:55:13;;;;;;;2.13;0.57;;;3.80;99.90;;;;;;6253259;22;20007;-87
2023/01/19 00:57:42;;;;;;;2.28;0.52;;;3.80;99.90;;;;;;6254641;22;20335;-87
2023/01/19 01:00:11;;;;;;;1.40;0.55;;;3.80;99.90;;;;;;6254445;22;20036;-86
2023/01/19 01:02:40;;;;;;;2.53;0.80;;;3.70;99.90;;;;;;6254959;22;20424;-86
2023/01/19 01:05:07;;;;;;;3.00;0.80;;;3.70;99.90;;;;;;6287057;22;20340;-85
2023/01/19 01:07:39;;;;;;;1.00;0.50;;;3.70;99.90;;;;;;6312739;22;20001;-85
2023/01/19 01:10:19;;;;;;;2.28;0.95;;;3.70;99.90;;;;;;6344055;22;19998;-86
2023/01/19 01:12:46;;;;;;;2.28;0.55;;;3.70;99.90;;;;;;6315944;22;20003;-86
2023/01/19 01:15:13;;;;;;;0.50;0.40;;;3.70;99.90;;;;;;6343833;22;20055;-87
2023/01/19 01:17:49;;;;;;;1.13;0.63;;;3.70;99.90;;;;;;6316208;22;20003;-86
2023/01/19 01:20:24;;;;;;;1.13;0.40;;;3.60;99.90;;;;;;6316385;22;20009;-87
2023/01/19 01:22:54;;;;;;;1.55;0.45;;;3.60;99.90;;;;;;6316873;22;20007;-86
2023/01/19 01:25:27;;;;;;;2.08;0.43;;;3.60;99.90;;;;;;6316086;22;20428;-86
2023/01/19 01:28:05;;;;;;;;;;;;;;;;;;;;;
2023/01/19 01:30:42;;;;;;;2.45;0.60;;;3.60;99.90;;;;;;6343628;22;20264;-86
2023/01/19 01:33:12;;;;;;;1.65;0.60;;;3.60;99.90;;;;;;6316346;22;20431;-87
2023/01/19 01:35:41;;;;;;;2.95;0.50;;;3.60;99.90;;;;;;6317376;22;20373;-87
2023/01/19 01:38:08;;;;;;;3.17;0.80;;;3.60;99.90;;;;;;6320485;22;20003;-89
2023/01/19 01:40:33;;;;;;;1.50;0.60;;;3.60;99.90;;;;;;6321861;22;20007;-88
2023/01/19 01:43:00;;;;;;;1.23;0.40;;;3.60;99.90;;;;;;6321879;22;20037;-89
2023/01/19 01:46:13;;;;;;;;;;;;;;;;;;;;;
2023/01/19 01:49:30;;;;;;;;;;;;;;;;;;;;;
2023/01/19 02:56:16;;;;;;;0.57;0.22;;;3.90;99.90;;;;;;6273645;22;1369357;-87
2023/01/19 04:07:11;;;;;;;;;;;;;;;;;;;;;
2023/01/19 04:49:23;;;;;;;0.20;0.10;;;3.70;99.90;;;;;;5642031;25;20077;-86
2023/01/19 04:52:25;;;;;;;0.30;0.22;;;3.80;99.90;;;;;;5744641;24;20012;-88
2023/01/19 04:55:09;;;;;;;0.20;0.20;;;3.90;99.90;;;;;;5946082;24;20094;-84
2023/01/19 04:57:34;;;;;;;;;;;3.90;99.90;;;;;;5979673;23;20019;-86
2023/01/19 05:00:19;;;;;;;0.52;0.25;;;3.90;99.90;;;;;;6018812;23;20248;-87
2023/01/19 05:07:17;;;;;;;;;;;;;;;;;;;;;
2023/01/19 06:13:59;;;;;;;1.23;0.75;;;3.60;99.90;;;;;;6259765;23;20087;-89
2023/01/19 06:28:01;;;;;;;;;;;;;;;;;;;;;
2023/01/19 06:43:57;;;;;;;0.43;0.32;;;3.80;99.90;;;;;;5907244;24;20031;-88
2023/01/19 06:46:23;;;;;;;0.43;0.30;;;3.80;99.90;;;;;;6068569;23;20005;-89
2023/01/19 06:48:48;;;;;;;0.50;0.30;;;3.80;99.90;;;;;;6179752;22;20001;-89
2023/01/19 06:51:14;;;;;;;1.30;0.47;;;3.90;99.90;;;;;;6318786;22;20003;-88
2023/01/19 06:53:40;;;;;;;0.60;0.50;;;3.90;99.90;;;;;;6318163;22;19999;-88
2023/01/19 06:56:08;;;;;;;0.40;0.25;;;3.80;99.90;;;;;;6318076;22;20003;-87
2023/01/19 07:02:52;;;;;;;1.50;0.50;;;3.90;99.90;;;;;;6311879;22;20003;-87
2023/01/19 07:06:07;;;;;;;;;;;;;;;;;;;;;
2023/01/19 07:08:34;;;;;;;1.00;0.40;;;3.80;99.90;;;;;;6315633;22;20137;-82
2023/01/19 07:11:25;;;;;;;1.00;0.40;;;3.70;99.90;;;;;;6343358;22;20033;-84
2023/01/19 07:14:02;;;;;;;1.52;0.80;;;3.70;99.90;;;;;;6299405;22;20005;-84
2023/01/19 07:23:35;;;;;;;;;;;;;;;;;;;;;
2023/01/19 07:26:43;;;;;;;;;;;;;;;;;;;;;
2023/01/19 07:29:09;;;;;;;0.98;0.60;;;3.70;99.90;;;;;;6345012;22;20087;-89
2023/01/19 07:31:34;;;;;;;1.73;0.80;;;3.70;99.90;;;;;;6318076;22;19999;-90
2023/01/19 07:34:00;;;;;;;1.48;0.68;;;3.70;99.90;;;;;;6317965;22;20035;-90
2023/01/19 07:36:44;;;;;;;2.33;0.73;;;3.70;99.90;;;;;;6318121;22;20007;-86
2023/01/19 07:39:09;;;;;;;;;;;3.70;99.90;;;;;;6317891;22;20007;-88
2023/01/19 07:41:35;;;;;;;2.78;0.80;;;3.70;99.90;;;;;;6317671;22;19981;-89
2023/01/19 07:44:01;;;;;;;1.88;0.45;;;3.60;99.90;;;;;;6317163;22;20002;-89
2023/01/19 07:46:26;;;;;;;1.77;0.88;;;3.60;99.90;;;;;;6317476;22;20007;-88
2023/01/19 07:48:52;;;;;;;0.75;0.57;;;3.70;99.90;;;;;;6318294;22;20002;-90
2023/01/19 07:51:18;;;;;;;1.80;0.70;;;3.70;99.90;;;;;;6318424;22;20700;-90
2023/01/19 07:53:48;;;;;;;2.08;0.85;;;3.60;99.90;;;;;;6317251;22;19998;-90
2023/01/19 07:56:14;;;;;;;1.65;0.57;;;3.70;99.90;;;;;;6317224;22;19999;-91
2023/01/19 07:58:39;;;;;;;0.70;0.43;;;3.70;99.90;;;;;;6318214;22;19998;-89
2023/01/19 08:01:14;;;;;;;1.65;0.70;;;3.70;99.90;;;;;;6317410;22;20025;-91
2023/01/19 08:03:43;;;;;;;1.73;0.52;;;3.70;99.90;;;;;;6317784;22;20006;-89
2023/01/19 08:06:18;;;;;;;1.75;0.65;;;3.70;99.90;;;;;;6316379;22;20025;-75
2023/01/19 08:08:44;;;;;;;1.90;0.47;;;3.80;99.90;;;;;;6344058;22;20015;-75
2023/01/19 08:11:09;;;;;;;1.05;0.52;;;3.80;99.90;;;;;;6344335;22;20009;-77
2023/01/19 08:13:35;;;;;;;0.95;0.50;;;3.90;99.90;;;;;;6344187;22;20003;-72
2023/01/19 08:16:00;;;;;;;0.70;0.30;;;4.00;99.90;;;;;;6316316;22;19999;-71
2023/01/19 08:18:26;;;;;;;0.68;0.40;;;4.10;99.90;;;;;;6344369;22;19995;-72
2023/01/19 08:20:52;;;;;;;1.10;0.60;;;4.10;99.90;;;;;;6315885;22;20090;-77
2023/01/19 08:23:18;;;;;;;3.45;0.70;;;4.10;99.90;;;;;;6344628;22;20059;-76
2023/01/19 08:25:44;;;;;;;1.38;0.45;;;4.10;99.90;;;;;;6344234;22;20024;-76
2023/01/19 08:28:13;;;;;;;1.33;0.68;;;4.10;99.90;;;;;;6316142;22;20030;-77
2023/01/19 08:30:39;;;;;;;2.88;0.60;;;4.10;99.90;;;;;;6316012;22;20021;-77
2023/01/19 08:33:08;;;;;;;2.03;1.15;;;4.20;99.90;;;;;;6316911;22;20404;-77
2023/01/19 08:35:36;;;;;;;1.67;0.82;;;4.20;99.90;;;;;;6344215;22;20017;-78
2023/01/19 08:38:03;;;;;;;1.40;0.95;;;4.10;99.90;;;;;;6316329;22;19999;-73
2023/01/19 08:40:38;;;;;;;3.50;1.45;;;4.20;99.90;;;;;;6316314;22;20446;-74
2023/01/19 08:43:06;;;;;;;2.05;1.40;;;4.20;99.90;;;;;;6343780;22;20082;-75
2023/01/19 08:45:36;;;;;;;3.42;1.88;;;4.20;99.90;;;;;;6343142;22;20027;-74
2023/01/19 08:48:03;;;;;;;2.67;1.42;;;4.20;99.90;;;;;;6343720;22;20002;-77
2023/01/19 08:50:30;;;;;;;2.65;1.40;;;4.20;99.90;;;;;;6343863;22;20074;-76
2023/01/19 08:52:57;;;;;;;2.88;1.60;;;4.30;99.90;;;;;;6343984;22;20006;-74
2023/01/19 08:55:24;;;;;;;4.03;1.52;;;4.30;99.90;;;;;;6343900;22;19999;-77
2023/01/19 08:57:53;;;;;;;4.82;1.48;;;4.30;99.90;;;;;;6343868;22;20078;-75
2023/01/19 09:00:20;;;;;;;3.30;1.40;;;4.30;99.90;;;;;;6316006;22;20427;-77
2023/01/19 09:02:47;;;;;;;2.95;1.50;;;4.30;99.90;;;;;;6343942;22;19998;-74
2023/01/19 09:05:12;;;;;;;4.80;1.20;;;4.30;99.90;;;;;;6316150;22;20028;-74
2023/01/19 09:07:38;;;;;;;2.45;1.25;;;4.30;99.90;;;;;;6315905;22;20390;-76
2023/01/19 09:10:05;;;;;;;1.88;1.15;;;4.40;99.90;;;;;;6344074;22;20431;-76
2023/01/19 09:12:31;;;;;;;3.15;1.67;;;4.40;99.90;;;;;;6343943;22;20020;-74
2023/01/19 09:14:57;;;;;;;1.98;1.20;;;4.40;99.90;;;;;;6315891;22;20059;-74
2023/01/19 09:17:22;;;;;;;1.45;0.90;;;4.40;99.90;;;;;;6343843;22;20412;-77
2023/01/19 09:19:48;;;;;;;2.05;1.30;;;4.40;99.90;;;;;;6343782;22;20028;-74
2023/01/19 09:22:14;;;;;;;2.22;1.10;;;4.40;99.90;;;;;;6344090;22;20337;-77
2023/01/19 09:24:39;;;;;;;1.83;0.90;;;4.40;99.90;;;;;;6343708;22;19999;-77
2023/01/19 09:27:05;;;;;;;2.70;1.20;;;4.40;99.90;;;;;;6343606;22;20052;-77
2023/01/19 09:29:31;;;;;;;2.55;1.00;;;4.40;99.90;;;;;;6315988;22;20007;-76
2023/01/19 09:31:57;;;;;;;2.05;1.00;;;4.50;99.90;;;;;;6343589;22;20488;-76
2023/01/19 09:34:24;;;;;;;2.33;1.00;;;4.50;99.90;;;;;;6315940;22;20382;-76
2023/01/19 09:36:50;;;;;;;1.63;0.95;;;4.50;99.90;;;;;;6316428;22;19999;-76
2023/01/19 09:39:16;;;;;;;2.03;1.02;;;4.50;99.90;;;;;;6315964;22;20083;-77
2023/01/19 09:41:47;;;;;;;1.15;0.80;;;4.40;99.90;;;;;;6316198;22;20003;-76
2023/01/19 09:44:26;;;;;;;1.15;0.80;;;4.40;99.90;;;;;;6343729;22;20052;-76
2023/01/19 09:46:52;;;;;;;0.93;0.70;;;4.50;99.90;;;;;;6343630;22;19999;-77
2023/01/19 09:49:33;;;;;;;2.67;0.88;;;4.50;99.90;;;;;;6316270;22;20007;-76
2023/01/19 09:51:59;;;;;;;1.35;0.90;;;4.50;99.90;;;;;;6315770;22;20010;-76
2023/01/19 09:54:35;;;;;;;1.52;0.65;;;4.50;99.90;;;;;;6344042;22;20086;-77
2023/01/19 09:57:01;;;;;;;1.83;0.90;;;4.50;99.90;;;;;;6344047;22;19995;-76
2023/01/19 09:59:32;;;;;;;1.77;0.73;;;4.50;99.90;;;;;;6315791;22;20003;-77
2023/01/19 10:02:04;;;;;;;2.30;0.95;;;4.50;99.90;;;;;;6343495;22;19999;-77
2023/01/19 10:04:39;;;;;;;1.48;1.15;;;4.50;99.90;;;;;;6343736;22;20005;-77
2023/01/19 10:07:29;;;;;;;1.48;0.90;;;4.60;99.90;;;;;;6343816;22;20359;-76
2023/01/19 10:10:04;;;;;;;1.20;0.90;;;4.60;99.90;;;;;;6343145;22;20029;-77
2023/01/19 10:12:35;;;;;;;1.95;1.00;;;4.60;99.90;;;;;;6343575;22;20034;-77
2023/01/19 10:15:27;;;;;;;1.65;1.00;;;4.60;99.90;;;;;;6343339;22;19999;-77
2023/01/19 10:18:17;;;;;;;1.67;0.95;;;4.60;99.90;;;;;;6274606;22;19999;-76
2023/01/19 10:20:49;;;;;;;2.15;0.90;;;4.50;99.90;;;;;;6345504;22;20685;-76
2023/01/19 10:23:39;;;;;;;2.45;0.80;;;4.60;99.90;;;;;;6345375;22;19999;-77
2023/01/19 10:26:16;;;;;;;1.90;1.13;;;4.60;99.90;;;;;;6317454;22;20028;-77
2023/01/19 10:28:44;;;;;;;2.20;0.73;;;4.60;99.90;;;;;;6317213;22;20006;-77
2023/01/19 10:31:11;;;;;;;1.75;0.90;;;4.70;99.90;;;;;;6344900;22;20030;-77
2023/01/19 10:33:37;;;;;;;1.40;0.80;;;4.70;99.90;;;;;;6317402;22;20050;-77
2023/01/19 10:36:20;;;;;;;1.98;0.98;;;4.70;99.90;;;;;;6345089;22;20005;-74
2023/01/19 10:38:46;;;;;;;1.45;0.98;;;4.70;99.90;;;;;;6345387;22;19999;-76
2023/01/19 10:41:30;;;;;;;1.88;0.95;;;4.80;99.90;;;;;;6345353;22;20001;-77
2023/01/19 10:44:03;;;;;;;;;;;4.80;99.90;;;;;;6318114;22;20003;-75
2023/01/19 10:46:42;;;;;;;1.48;0.80;;;4.90;99.90;;;;;;6317016;22;19910;-76
2023/01/19 10:49:27;;;;;;;1.98;0.93;;;4.90;99.90;;;;;;6345382;22;20026;-74
2023/01/19 10:51:54;;;;;;;1.80;1.10;;;4.90;99.90;;;;;;6345083;22;19995;-77
2023/01/19 10:54:21;;;;;;;1.75;0.90;;;4.90;99.90;;;;;;6345365;22;20320;-76
2023/01/19 10:56:53;;;;;;;2.85;0.80;;;4.90;99.90;;;;;;6345361;22;20073;-77
2023/01/19 10:59:46;;;;;;;2.83;1.13;;;4.90;99.90;;;;;;6317361;22;20098;-75
2023/01/19 11:02:26;;;;;;;1.75;0.82;;;5.00;99.90;;;;;;6344942;22;20025;-77
2023/01/19 11:04:58;;;;;;;1.20;0.88;;;4.90;99.90;;;;;;6345094;22;20002;-76
2023/01/19 11:07:32;;;;;;;2.42;1.20;;;5.00;99.90;;;;;;6344797;22;20424;-76
2023/01/19 11:10:16;;;;;;;3.00;0.90;;;5.00;99.90;;;;;;6344601;22;20374;-76
2023/01/19 11:12:46;;;;;;;;;;;5.10;99.90;;;;;;6344843;22;20002;-76
2023/01/19 11:15:15;;;;;;;1.90;0.90;;;5.10;99.90;;;;;;6344781;22;19952;-77
2023/01/19 11:17:44;;;;;;;1.10;0.80;;;5.10;99.90;;;;;;6344538;22;20113;-78
2023/01/19 11:20:23;;;;;;;1.17;0.77;;;5.10;99.90;;;;;;6344204;22;20011;-78
2023/01/19 11:23:28;;;;;;;1.88;0.85;;;5.10;99.90;;;;;;6343894;22;20089;-77
2023/01/19 11:25:57;;;;;;;2.60;1.10;;;5.20;99.90;;;;;;6310215;22;20013;-78
2023/01/19 11:28:44;;;;;;;2.50;1.20;;;5.20;99.90;;;;;;6316263;22;20010;-78
2023/01/19 11:31:10;;;;;;;2.25;1.10;;;5.20;99.90;;;;;;6343924;22;19998;-78
2023/01/19 11:33:42;;;;;;;3.08;1.13;;;5.20;99.90;;;;;;6344164;22;20384;-78
2023/01/19 11:36:20;;;;;;;3.10;1.27;;;5.30;99.90;;;;;;6343349;22;19999;-72
2023/01/19 11:38:49;;;;;;;2.47;1.20;;;5.20;99.90;;;;;;6344232;22;20019;-72
2023/01/19 11:41:21;;;;;;;2.58;1.00;;;5.30;99.90;;;;;;6316726;22;20003;-75
2023/01/19 11:44:12;;;;;;;2.63;1.33;;;5.30;99.90;;;;;;6316489;22;20075;-77
2023/01/19 11:46:42;;;;;;;2.85;0.95;;;5.30;99.90;;;;;;6343846;22;20399;-76
2023/01/19 11:49:20;;;;;;;2.17;1.33;;;5.30;99.90;;;;;;6343679;22;20028;-73
2023/01/19 11:52:06;;;;;;;2.15;1.10;;;5.30;99.90;;;;;;6316174;22;19999;-74
2023/01/19 11:54:39;;;;;;;3.15;1.05;;;5.30;99.90;;;;;;6316494;22;20086;-75
2023/01/19 11:57:12;;;;;;;1.73;1.10;;;5.40;99.90;;;;;;6344019;22;19999;-76
2023/01/19 11:59:38;;;;;;;;;;;5.40;99.90;;;;;;6343830;22;19999;-74
2023/01/19 12:02:15;;;;;;;3.42;1.20;;;5.40;99.90;;;;;;6343319;22;19902;-74
2023/01/19 12:04:43;;;;;;;1.45;0.90;;;5.40;99.90;;;;;;6344650;22;19999;-76
2023/01/19 12:07:11;;;;;;;2.38;1.23;;;5.40;99.90;;;;;;6314803;22;20044;-76
2023/01/19 12:09:46;;;;;;;2.03;1.02;;;5.40;99.90;;;;;;6315672;22;20042;-76
2023/01/19 12:12:25;;;;;;;2.10;1.05;;;5.40;99.90;;;;;;6342885;22;20003;-76
2023/01/19 12:15:05;;;;;;;1.98;1.05;;;5.40;99.90;;;;;;6315490;22;20033;-75
2023/01/19 12:17:39;;;;;;;2.03;1.10;;;5.50;99.90;;;;;;6315603;22;20002;-76
2023/01/19 12:20:18;;;;;;;2.22;1.30;;;5.50;99.90;;;;;;6315960;22;20018;-76
2023/01/19 12:22:51;;;;;;;2.20;1.40;;;5.50;99.90;;;;;;6314867;22;20007;-75
2023/01/19 12:25:22;;;;;;;2.65;0.90;;;5.50;99.90;;;;;;6315931;22;20006;-75
2023/01/19 12:27:49;;;;;;;3.03;1.35;;;5.50;99.90;;;;;;6339518;22;20003;-75
2023/01/19 12:30:20;;;;;;;2.17;1.02;;;5.50;99.90;;;;;;6313681;22;20378;-75
2023/01/19 12:32:45;;;;;;;1.92;1.10;;;5.50;99.90;;;;;;6343254;22;19995;-76
2023/01/19 12:35:49;;;;;;;3.35;1.30;;;5.50;99.90;;;;;;6315922;22;20003;-78
2023/01/19 12:38:37;;;;;;;2.72;1.10;;;5.50;99.90;;;;;;6315736;22;20010;-76
2023/01/19 12:41:21;;;;;;;2.20;1.10;;;5.50;99.90;;;;;;6315521;22;20011;-75
2023/01/19 12:44:08;;;;;;;1.75;1.00;;;5.50;99.90;;;;;;6315169;22;20010;-73
2023/01/19 12:46:33;;;;;;;1.85;1.17;;;5.50;99.90;;;;;;6342840;22;20006;-73
2023/01/19 12:49:09;;;;;;;3.22;1.35;;;5.50;99.90;;;;;;6343046;22;20162;-74
2023/01/19 12:51:35;;;;;;;1.90;1.10;;;5.50;99.90;;;;;;6343555;22;20430;-73
2023/01/19 12:54:06;;;;;;;1.95;1.10;;;5.50;99.90;;;;;;6341517;22;19999;-73
2023/01/19 12:56:35;;;;;;;2.40;1.00;;;5.60;99.90;;;;;;6315129;22;20106;-72
2023/01/19 12:59:03;;;;;;;2.65;1.15;;;5.60;99.90;;;;;;6342414;22;20027;-76
2023/01/19 13:01:28;;;;;;;1.70;0.90;;;5.60;99.90;;;;;;6342843;22;19995;-75
2023/01/19 13:03:58;;;;;;;1.85;0.88;;;5.60;99.90;;;;;;6343534;22;20006;-77
2023/01/19 13:07:09;;;;;;;3.00;1.13;;;5.60;99.90;;;;;;6342933;22;20013;-76
2023/01/19 13:09:37;;;;;;;1.90;1.02;;;5.60;99.90;;;;;;6315387;22;20011;-73
2023/01/19 13:12:24;;;;;;;2.25;1.00;;;5.60;99.90;;;;;;6343167;22;20002;-74
2023/01/19 13:14:49;;;;;;;1.83;1.00;;;5.70;99.90;;;;;;6343257;22;20009;-76
2023/01/19 13:17:24;;;;;;;2.63;1.17;;;5.70;99.90;;;;;;6342677;22;20350;-74
2023/01/19 13:20:04;;;;;;;2.30;1.10;;;5.70;99.90;;;;;;6341689;22;20055;-74
2023/01/19 13:22:46;;;;;;;3.25;0.98;;;5.70;99.90;;;;;;6341314;22;20007;-75
2023/01/19 13:25:20;;;;;;;3.03;1.05;;;5.80;99.90;;;;;;6343131;22;20055;-74
2023/01/19 13:27:45;;;;;;;3.35;1.23;;;5.90;99.90;;;;;;6343112;22;20003;-76
2023/01/19 13:30:16;;;;;;;2.10;1.00;;;5.90;99.90;;;;;;6315537;22;20007;-77
2023/01/19 13:32:42;;;;;;;2.45;1.00;;;6.00;99.90;;;;;;6343153;22;20026;-79
2023/01/19 13:35:15;;;;;;;2.53;1.27;;;6.00;99.90;;;;;;6343643;22;20002;-74
2023/01/19 13:37:43;;;;;;;4.63;1.40;;;6.00;99.90;;;;;;6342942;22;20044;-73
2023/01/19 13:40:30;;;;;;;3.10;1.50;;;6.00;99.90;;;;;;6315910;22;20007;-74
2023/01/19 13:42:57;;;;;;;2.40;1.10;;;6.00;99.90;;;;;;6342853;22;20056;-74
2023/01/19 13:45:32;;;;;;;2.78;1.08;;;6.00;99.90;;;;;;6343417;22;20005;-74
2023/01/19 13:48:01;;;;;;;2.20;1.02;;;6.00;99.90;;;;;;6342905;22;20007;-74
2023/01/19 13:50:34;;;;;;;2.47;1.30;;;6.10;99.90;;;;;;6342808;22;20309;-74
2023/01/19 13:53:00;;;;;;;2.97;1.20;;;6.10;99.90;;;;;;6316889;22;20010;-74
2023/01/19 13:55:29;;;;;;;2.38;1.08;;;6.10;99.90;;;;;;6345512;22;20022;-75
2023/01/19 13:57:56;;;;;;;3.83;1.15;;;6.10;99.90;;;;;;6317872;22;20416;-74
2023/01/19 14:00:24;;;;;;;2.92;1.10;;;6.00;99.90;;;;;;6344691;22;20632;-74
2023/01/19 14:02:52;;;;;;;1.88;0.95;;;6.00;99.90;;;;;;6345130;22;20078;-74
2023/01/19 14:05:26;;;;;;;2.92;1.40;;;6.00;99.90;;;;;;6344849;22;19999;-74
2023/01/19 14:08:00;;;;;;;;;;;5.90;99.90;;;;;;6345698;22;20442;-77
2023/01/19 14:10:26;;;;;;;1.65;0.90;;;5.90;99.90;;;;;;6344622;22;19906;-74
2023/01/19 14:13:00;;;;;;;1.27;0.80;;;5.90;99.90;;;;;;6317582;22;20025;-75
2023/01/19 14:15:26;;;;;;;;;;;5.80;99.90;;;;;;6345004;22;20317;-74
2023/01/19 14:18:17;;;;;;;1.45;0.80;;;5.80;99.90;;;;;;6345295;22;20334;-74
2023/01/19 14:21:04;;;;;;;2.03;1.00;;;5.80;99.90;;;;;;6311582;22;20014;-75
2023/01/19 14:23:58;;;;;;;2.22;0.80;;;5.70;99.90;;;;;;6344366;22;20006;-74
2023/01/19 14:26:47;;;;;;;1.10;0.60;;;5.70;99.90;;;;;;6344965;22;20006;-75
2023/01/19 14:29:24;;;;;;;1.80;0.80;;;5.80;99.90;;;;;;6344815;22;19999;-73
2023/01/19 14:32:12;;;;;;;1.80;0.98;;;5.80;99.90;;;;;;6345018;22;20073;-74
2023/01/19 14:34:50;;;;;;;1.02;0.57;;;5.80;99.90;;;;;;6344925;22;20026;-79
2023/01/19 14:37:21;;;;;;;1.67;0.73;;;5.80;99.90;;;;;;6344890;22;19995;-76
2023/01/19 14:39:52;;;;;;;0.82;0.68;;;5.80;99.90;;;;;;6317093;22;20010;-77
2023/01/19 14:42:34;;;;;;;1.15;0.80;;;5.90;99.90;;;;;;6316736;22;20010;-77
2023/01/19 14:45:03;;;;;;;1.70;1.00;;;5.90;99.90;;;;;;6316412;22;20032;-76
2023/01/19 14:47:40;;;;;;;1.92;1.20;;;6.00;99.90;;;;;;6316872;22;20017;-75
2023/01/19 14:50:22;;;;;;;2.22;1.10;;;6.00;99.90;;;;;;6316135;22;20343;-76
2023/01/19 14:52:56;;;;;;;1.67;1.00;;;6.00;99.90;;;;;;6343565;22;20013;-77
2023/01/19 14:55:39;;;;;;;3.25;1.17;;;6.00;99.90;;;;;;6343330;22;19999;-75
2023/01/19 14:58:10;;;;;;;2.15;1.30;;;6.00;99.90;;;;;;6343788;22;19999;-77
2023/01/19 15:00:35;;;;;;;1.55;1.08;;;6.10;99.90;;;;;;6313727;22;20007;-76
2023/01/19 15:03:01;;;;;;;2.05;1.23;;;6.10;99.90;;;;;;6343710;22;20009;-79
2023/01/19 15:05:26;;;;;;;1.63;0.80;;;6.10;99.90;;;;;;6344194;22;20070;-80
2023/01/19 15:07:52;;;;;;;2.10;0.95;;;6.20;99.90;;;;;;6344054;22;20073;-80
2023/01/19 15:10:22;;;;;;;3.13;1.20;;;6.20;99.90;;;;;;6316313;22;20011;-76
2023/01/19 15:12:50;;;;;;;3.35;0.90;;;6.20;99.90;;;;;;6316839;22;20003;-76
2023/01/19 15:15:25;;;;;;;1.23;0.90;;;6.20;99.90;;;;;;6343827;22;19999;-76
2023/01/19 15:17:52;;;;;;;2.00;1.10;;;6.10;99.90;;;;;;6344522;22;19998;-75
2023/01/19 15:20:20;;;;;;;2.30;1.20;;;6.10;99.90;;;;;;6343748;22;20030;-75
2023/01/19 15:22:46;;;;;;;2.50;1.20;;;6.10;99.90;;;;;;6316714;22;20086;-75
2023/01/19 15:25:14;;;;;;;2.35;1.10;;;6.00;99.90;;;;;;6344042;22;20435;-75
2023/01/19 15:27:39;;;;;;;2.50;1.23;;;6.00;99.90;;;;;;6316331;22;20010;-74
2023/01/19 15:30:14;;;;;;;1.88;1.10;;;5.90;99.90;;;;;;6316031;22;20007;-74
2023/01/19 15:32:42;;;;;;;2.75;1.05;;;5.80;99.90;;;;;;6344299;22;19999;-75
2023/01/19 15:35:22;;;;;;;1.73;0.93;;;5.80;99.90;;;;;;6344072;22;20344;-75
2023/01/19 15:37:49;;;;;;;2.38;0.95;;;5.80;99.90;;;;;;6315860;22;20006;-75
2023/01/19 15:40:16;;;;;;;2.92;1.20;;;5.80;99.90;;;;;;6343630;22;20451;-74
2023/01/19 15:42:42;;;;;;;3.63;1.17;;;5.80;99.90;;;;;;6343516;22;20003;-73
2023/01/19 15:45:37;;;;;;;1.42;0.93;;;5.80;99.90;;;;;;6315876;22;20007;-74
2023/01/19 15:48:08;;;;;;;1.55;0.63;;;5.70;99.90;;;;;;6343993;22;20026;-76
2023/01/19 15:50:39;;;;;;;2.70;0.88;;;5.70;99.90;;;;;;6343232;22;20003;-77
2023/01/19 15:53:06;;;;;;;1.70;0.85;;;5.70;99.90;;;;;;6316403;22;20002;-77
2023/01/19 15:55:31;;;;;;;2.53;0.88;;;5.70;99.90;;;;;;6316287;22;20009;-76
2023/01/19 15:58:00;;;;;;;1.75;1.00;;;5.70;99.90;;;;;;6344472;22;19995;-76
2023/01/19 16:00:33;;;;;;;1.98;0.80;;;5.70;99.90;;;;;;6344009;22;20454;-76
2023/01/19 16:02:59;;;;;;;2.13;0.65;;;5.70;99.90;;;;;;6343542;22;19999;-76
2023/01/19 16:05:25;;;;;;;2.00;0.90;;;5.70;99.90;;;;;;6343676;22;20010;-75
2023/01/19 16:07:51;;;;;;;1.70;0.75;;;5.70;99.90;;;;;;6316187;22;20006;-76
2023/01/19 16:10:17;;;;;;;2.65;1.15;;;5.70;99.90;;;;;;6343935;22;20003;-75
2023/01/19 16:12:43;;;;;;;1.95;1.08;;;5.70;99.90;;;;;;6343769;22;19995;-76
2023/01/19 16:15:10;;;;;;;1.02;0.73;;;5.60;99.90;;;;;;6314670;22;20007;-75
2023/01/19 16:17:36;;;;;;;1.73;1.05;;;5.70;99.90;;;;;;6343871;22;20048;-76
2023/01/19 16:20:05;;;;;;;1.40;0.88;;;5.70;99.90;;;;;;6315539;22;20006;-76
2023/01/19 16:22:31;;;;;;;1.65;0.90;;;5.70;99.90;;;;;;6344191;22;19998;-77
2023/01/19 16:24:57;;;;;;;1.55;0.98;;;5.70;99.90;;;;;;6341884;22;20005;-76
2023/01/19 16:27:23;;;;;;;1.50;1.00;;;5.70;99.90;;;;;;6315859;22;20067;-76
2023/01/19 16:29:49;;;;;;;2.78;1.05;;;5.60;99.90;;;;;;6343504;22;20010;-76
2023/01/19 16:32:15;;;;;;;1.95;1.00;;;5.60;99.90;;;;;;6315180;22;19999;-76
2023/01/19 16:34:41;;;;;;;1.92;1.30;;;5.60;99.90;;;;;;6344041;22;20033;-77
2023/01/19 16:37:06;;;;;;;1.90;1.00;;;5.60;99.90;;;;;;6315656;22;20006;-76
2023/01/19 16:39:32;;;;;;;1.55;0.77;;;5.50;99.90;;;;;;6315954;22;20010;-76
2023/01/19 16:41:58;;;;;;;3.25;1.20;;;5.50;99.90;;;;;;6315883;22;20076;-78
2023/01/19 16:44:24;;;;;;;3.30;1.15;;;5.50;99.90;;;;;;6315032;22;20418;-77
2023/01/19 16:46:49;;;;;;;1.92;1.00;;;5.50;99.90;;;;;;6315285;22;20018;-78
2023/01/19 16:49:18;;;;;;;2.58;1.05;;;5.50;99.90;;;;;;6315494;22;20432;-78
2023/01/19 16:51:44;;;;;;;2.17;1.13;;;5.40;99.90;;;;;;6343092;22;19995;-78
2023/01/19 16:54:22;;;;;;;2.28;1.17;;;5.40;99.90;;;;;;6343503;22;20316;-77
2023/01/19 16:56:48;;;;;;;2.10;1.20;;;5.40;99.90;;;;;;6315536;22;20003;-76
2023/01/19 16:59:15;;;;;;;2.50;1.02;;;5.50;99.90;;;;;;6315762;22;20014;-77
2023/01/19 17:01:43;;;;;;;2.60;0.95;;;5.50;99.90;;;;;;6342510;22;20082;-73
2023/01/19 17:04:09;;;;;;;2.90;1.40;;;5.50;99.90;;;;;;6316090;22;20012;-77
2023/01/19 17:06:35;;;;;;;2.38;1.30;;;5.50;99.90;;;;;;6343375;22;19999;-76
2023/01/19 17:09:01;;;;;;;1.98;1.15;;;5.40;99.90;;;;;;6343461;22;20347;-76
2023/01/19 17:11:30;;;;;;;1.67;1.08;;;5.40;99.90;;;;;;6342827;22;20072;-76
2023/01/19 17:13:59;;;;;;;2.08;1.15;;;5.40;99.90;;;;;;6343034;22;20021;-77
2023/01/19 17:16:25;;;;;;;2.28;1.15;;;5.30;99.90;;;;;;6315110;22;20432;-76
2023/01/19 17:18:52;;;;;;;3.30;1.40;;;5.30;99.90;;;;;;6343250;22;20011;-75
2023/01/19 17:21:18;;;;;;;2.15;1.00;;;5.30;99.90;;;;;;6315149;22;20003;-75
2023/01/19 17:23:46;;;;;;;1.85;1.20;;;5.30;99.90;;;;;;6343317;22;20453;-76
2023/01/19 17:26:13;;;;;;;2.03;1.30;;;5.20;99.90;;;;;;6314828;22;20045;-76
2023/01/19 17:28:40;;;;;;;2.92;1.48;;;5.20;99.90;;;;;;6343517;22;20003;-77
2023/01/19 17:34:18;;;;;;;2.47;1.35;;;5.10;99.90;;;;;;6343027;22;20071;-88
2023/01/19 17:40:15;;;;;;;2.15;1.33;;;5.10;99.90;;;;;;6342250;22;20010;-84
2023/01/19 17:58:43;;;;;;;2.80;1.50;;;4.90;99.90;;;;;;6334433;22;20019;-81
2023/01/19 18:01:29;;;;;;;1.90;1.52;;;4.90;99.90;;;;;;6315528;22;20098;-85
2023/01/19 18:03:55;;;;;;;1.60;1.10;;;5.00;99.90;;;;;;6343856;22;20002;-84
2023/01/19 18:06:41;;;;;;;2.70;1.58;;;5.00;99.90;;;;;;6342818;22;20066;-82
2023/01/19 18:09:10;;;;;;;1.65;1.30;;;5.00;99.90;;;;;;6315286;22;20023;-79
2023/01/19 18:11:36;;;;;;;1.80;1.30;;;5.10;99.90;;;;;;6342233;22;20006;-79
2023/01/19 18:14:01;;;;;;;1.70;1.10;;;5.10;99.90;;;;;;6341942;22;20002;-80
2023/01/19 18:16:28;;;;;;;1.85;1.40;;;5.00;99.90;;;;;;6341688;22;20066;-79
2023/01/19 18:18:55;;;;;;;3.28;1.67;;;5.10;99.90;;;;;;6314441;22;20005;-79
2023/01/19 18:21:22;;;;;;;2.85;1.40;;;5.10;99.90;;;;;;6342066;22;20044;-78
2023/01/19 18:23:49;;;;;;;2.45;1.50;;;5.10;99.90;;;;;;6315098;22;20089;-78
2023/01/19 18:26:17;;;;;;;2.90;1.50;;;5.10;99.90;;;;;;6315329;22;20026;-77
2023/01/19 18:28:46;;;;;;;2.30;1.52;;;5.00;99.90;;;;;;6315192;22;19999;-78
2023/01/19 18:31:15;;;;;;;3.15;1.75;;;5.10;99.90;;;;;;6314431;22;20010;-79
2023/01/19 18:33:41;;;;;;;2.50;1.50;;;5.00;99.90;;;;;;6342602;22;20078;-78
2023/01/19 18:36:08;;;;;;;3.80;2.25;;;5.00;99.90;;;;;;6343161;22;19999;-77
2023/01/19 18:38:34;;;;;;;4.63;2.08;;;5.00;99.90;;;;;;6316505;22;20470;-78
2023/01/19 18:41:04;;;;;;;2.55;1.65;;;5.00;99.90;;;;;;6317702;22;20002;-78
2023/01/19 18:43:30;;;;;;;2.80;1.95;;;5.00;99.90;;;;;;6344615;22;19998;-77
2023/01/19 18:45:56;;;;;;;3.05;2.00;;;5.00;99.90;;;;;;6316936;22;20450;-77
2023/01/19 18:48:22;;;;;;;3.60;1.85;;;5.00;99.90;;;;;;6316476;22;20002;-77
2023/01/19 18:50:47;;;;;;;3.53;2.30;;;5.00;99.90;;;;;;6344304;22;20048;-77
2023/01/19 18:54:16;;;;;;;3.10;2.13;;;5.00;99.90;;;;;;6316275;22;20090;-81
2023/01/19 18:57:20;;;;;;;;;;;;;;;;;;;;;
2023/01/19 19:03:22;;;;;;;2.50;1.92;;;4.80;99.90;;;;;;6342391;22;20021;-84
2023/01/19 19:05:48;;;;;;;3.17;2.15;;;4.80;99.90;;;;;;6343291;22;20343;-79
2023/01/19 19:08:14;;;;;;;2.75;1.98;;;4.80;99.90;;;;;;6340023;22;20031;-77
2023/01/19 19:10:40;;;;;;;2.70;1.73;;;4.80;99.90;;;;;;6315485;22;20007;-78
2023/01/19 19:13:06;;;;;;;3.20;2.05;;;4.80;99.90;;;;;;6315906;22;20019;-78
2023/01/19 19:15:32;;;;;;;2.70;1.70;;;4.80;99.90;;;;;;6343814;22;20447;-78
2023/01/19 19:17:59;;;;;;;3.53;1.75;;;4.80;99.90;;;;;;6315768;22;19999;-79
2023/01/19 19:20:24;;;;;;;3.30;1.92;;;4.70;99.90;;;;;;6316456;22;20491;-79